Time;durP1;ratioP1;P1;durP2;ratioP2;P2;SDS_P1;SDS_P2;PMS_P1;PMS_P2;Temp;Humidity;BMP_temperature;BMP_pressure;BME280_temperature;BME280_humidity;BME280_pressure;Samples;Min_cycle;Max_cycle;Signal;HPM_P1;HPM_P2
2022/08/09 00:01:20;;;;;;;6.15;3.30;;;;;;;27.27;45.01;101023.13;4933773;29;20530;-58
2022/08/09 00:04:05;;;;;;;4.18;3.78;;;;;;;27.28;44.03;101033.06;4933262;29;20046;-59
2022/08/09 00:06:50;;;;;;;6.80;4.00;;;;;;;27.33;45.36;101029.81;4936529;29;20051;-59
2022/08/09 00:09:35;;;;;;;5.93;3.60;;;;;;;27.30;44.40;101025.06;4941392;28;20046;-60
2022/08/09 00:12:20;;;;;;;7.30;3.97;;;;;;;27.34;44.16;101030.59;4952213;29;20074;-58
2022/08/09 00:15:05;;;;;;;8.07;4.97;;;;;;;27.27;42.79;101030.72;4952653;29;20070;-59
2022/08/09 00:17:50;;;;;;;4.47;3.20;;;;;;;27.20;44.21;101026.81;4952185;29;20054;-60
2022/08/09 00:20:35;;;;;;;5.65;4.00;;;;;;;27.23;44.34;101025.97;4953767;28;20054;-58
2022/08/09 00:23:20;;;;;;;4.18;3.28;;;;;;;27.24;44.13;101032.34;4952269;28;20135;-59
2022/08/09 00:26:06;;;;;;;4.88;3.40;;;;;;;27.24;43.05;101027.56;4944798;28;20611;-59
2022/08/09 00:28:52;;;;;;;4.50;3.15;;;;;;;27.26;44.80;101020.75;4949795;29;20046;-59
2022/08/09 00:31:37;;;;;;;3.85;2.78;;;;;;;27.18;42.92;101011.69;4951702;28;20050;-60
2022/08/09 00:34:22;;;;;;;6.72;2.72;;;;;;;27.21;44.08;101017.22;4952366;29;20046;-59
2022/08/09 00:37:07;;;;;;;5.05;3.25;;;;;;;27.21;44.17;101011.66;4952358;28;20050;-59
2022/08/09 00:39:52;;;;;;;5.03;2.50;;;;;;;27.23;43.81;101011.22;4955311;28;20066;-58
2022/08/09 00:42:37;;;;;;;4.55;2.65;;;;;;;27.22;43.52;101012.44;4952974;29;20616;-59
2022/08/09 00:45:22;;;;;;;6.72;2.92;;;;;;;27.21;43.99;101006.06;4949688;29;20054;-59
2022/08/09 00:48:07;;;;;;;5.57;2.78;;;;;;;27.22;43.68;101006.84;4947893;29;20043;-59
2022/08/09 00:50:52;;;;;;;6.55;3.33;;;;;;;27.21;42.98;101003.28;4955611;28;20050;-60
2022/08/09 00:53:38;;;;;;;3.60;2.60;;;;;;;27.21;44.00;101008.06;4955688;29;20525;-60
2022/08/09 00:56:23;;;;;;;4.47;2.75;;;;;;;27.20;43.31;100996.09;4956097;29;20406;-59
2022/08/09 00:59:08;;;;;;;3.65;3.03;;;;;;;27.21;43.43;100992.09;4958083;28;20670;-59
2022/08/09 01:01:54;;;;;;;6.60;2.63;;;;;;;27.20;44.02;100998.09;4955315;29;20054;-59
2022/08/09 01:05:00;;;;;;;3.30;2.90;;;;;;;27.23;43.37;100986.06;4956181;28;20070;-59
2022/08/09 01:08:12;;;;;;;4.70;3.90;;;;;;;27.22;43.02;100988.09;5025928;23;20057;-80
2022/08/09 01:11:16;;;;;;;5.32;2.85;;;;;;;27.16;43.06;100989.78;4994429;28;20050;-80
2022/08/09 01:14:28;;;;;;;7.93;3.22;;;;;;;27.19;42.85;100988.13;4990782;28;20049;-80
2022/08/09 01:17:34;;;;;;;5.20;2.90;;;;;;;27.14;42.50;100983.81;4977211;28;20053;-81
2022/08/09 01:20:19;;;;;;;3.67;2.80;;;;;;;27.08;42.44;100993.88;4992364;28;20041;-80
2022/08/09 01:23:13;;;;;;;3.97;2.78;;;;;;;27.06;42.55;100987.16;5003621;28;20053;-80
2022/08/09 01:26:36;;;;;;;5.15;3.03;;;;;;;27.12;42.67;100988.25;5001917;28;20053;-80
2022/08/09 01:29:31;;;;;;;4.82;2.78;;;;;;;27.11;42.21;100993.06;5000184;28;20042;-80
2022/08/09 01:32:18;;;;;;;3.38;2.85;;;;;;;27.13;42.08;100996.19;4988830;28;20049;-80
2022/08/09 01:35:08;;;;;;;5.03;3.15;;;;;;;27.09;42.41;100994.66;5003244;28;20054;-81
2022/08/09 01:37:58;;;;;;;3.70;2.83;;;;;;;27.06;42.43;100999.09;5003546;28;20073;-80
2022/08/09 01:40:48;;;;;;;3.55;2.65;;;;;;;27.09;42.01;101001.03;4994021;28;20057;-81
2022/08/09 01:43:36;;;;;;;3.75;2.40;;;;;;;27.05;42.02;101005.91;4990008;28;20057;-80
2022/08/09 01:46:28;;;;;;;7.80;2.28;;;;;;;27.07;41.99;101011.06;4998267;28;20427;-80
2022/08/09 01:49:16;;;;;;;8.45;2.65;;;;;;;27.08;41.80;101007.84;4990319;28;20041;-80
2022/08/09 01:52:06;;;;;;;6.65;2.42;;;;;;;27.07;41.39;101011.84;4995387;28;20049;-80
2022/08/09 01:54:57;;;;;;;3.90;2.35;;;;;;;27.05;40.86;101019.06;5002606;28;20041;-80
2022/08/09 01:57:45;;;;;;;3.85;3.13;;;;;;;27.04;41.87;101012.69;5003060;28;20046;-80
2022/08/09 02:00:32;;;;;;;3.53;2.70;;;;;;;27.07;42.34;101020.22;4989716;28;20057;-80
2022/08/09 02:03:18;;;;;;;3.45;3.15;;;;;;;27.08;42.65;101026.59;4998389;28;20050;-80
2022/08/09 02:06:06;;;;;;;4.15;2.90;;;;;;;27.06;42.04;101038.19;5001428;28;20053;-80
2022/08/09 02:08:51;;;;;;;5.97;2.80;;;;;;;27.04;42.23;101035.03;4984811;28;20041;-80
2022/08/09 02:11:36;;;;;;;2.95;2.40;;;;;;;27.05;41.80;101036.59;4997913;28;20045;-80
2022/08/09 02:14:23;;;;;;;5.07;2.83;;;;;;;27.05;41.96;101041.41;4996992;28;20049;-80
2022/08/09 02:17:10;;;;;;;3.28;2.55;;;;;;;27.03;41.20;101043.81;4991374;28;20057;-80
2022/08/09 02:19:55;;;;;;;4.13;2.63;;;;;;;27.00;41.70;101041.88;4991619;28;20053;-80
2022/08/09 02:22:47;;;;;;;4.95;2.50;;;;;;;27.01;41.22;101041.47;4993795;28;20057;-80
2022/08/09 02:25:35;;;;;;;5.50;2.92;;;;;;;26.91;40.91;101047.97;4997258;28;20425;-80
2022/08/09 02:28:33;;;;;;;5.07;2.72;;;;;;;27.00;41.65;101051.03;4992541;28;20053;-80
2022/08/09 02:31:21;;;;;;;5.18;2.38;;;;;;;26.99;41.42;101051.44;4994866;28;20437;-80
2022/08/09 02:34:16;;;;;;;4.57;2.65;;;;;;;27.00;42.03;101051.03;4989755;28;20045;-80
2022/08/09 02:37:04;;;;;;;5.00;3.17;;;;;;;27.04;42.93;101048.97;5002038;28;20053;-80
2022/08/09 02:39:56;;;;;;;4.45;2.55;;;;;;;26.99;40.91;101040.28;5001749;28;20045;-81
2022/08/09 02:42:43;;;;;;;6.30;2.17;;;;;;;27.02;42.02;101033.88;5001888;28;20065;-80
2022/08/09 02:45:33;;;;;;;7.53;2.92;;;;;;;26.97;42.42;101023.94;4986483;28;20049;-80
2022/08/09 02:48:19;;;;;;;3.33;2.83;;;;;;;26.92;42.13;101024.41;4985408;28;20069;-80
2022/08/09 02:51:08;;;;;;;4.22;2.92;;;;;;;26.99;40.58;101024.31;4984522;28;20427;-80
2022/08/09 02:53:57;;;;;;;4.25;2.70;;;;;;;26.92;41.72;101027.19;4989634;28;20053;-81
2022/08/09 02:56:46;;;;;;;5.82;2.40;;;;;;;26.87;41.02;101022.09;4990252;28;20053;-80
2022/08/09 02:59:34;;;;;;;4.13;2.25;;;;;;;26.87;40.81;101027.66;4996246;28;20050;-80
2022/08/09 03:02:19;;;;;;;2.85;2.47;;;;;;;26.77;41.43;101031.34;4988507;28;20058;-80
2022/08/09 03:05:07;;;;;;;5.50;2.45;;;;;;;26.70;42.29;101035.03;4998107;28;20049;-80
2022/08/09 03:07:53;;;;;;;6.95;2.53;;;;;;;26.63;41.22;101042.69;4996314;28;20045;-80
2022/08/09 03:10:40;;;;;;;7.50;2.85;;;;;;;26.70;42.17;101048.22;4999204;28;20127;-80
2022/08/09 03:13:26;;;;;;;2.90;2.25;;;;;;;26.69;42.09;101038.25;4994793;28;20049;-80
2022/08/09 03:16:18;;;;;;;2.92;2.50;;;;;;;26.73;42.05;101033.41;4995240;28;20064;-80
2022/08/09 03:19:04;;;;;;;3.35;2.92;;;;;;;26.60;42.26;101026.81;5001603;28;20062;-80
2022/08/09 03:21:50;;;;;;;4.38;2.58;;;;;;;26.63;42.65;101025.97;5001639;28;20228;-80
2022/08/09 03:24:37;;;;;;;4.13;1.95;;;;;;;26.61;42.42;101014.44;4996730;28;20061;-80
2022/08/09 03:27:23;;;;;;;2.53;1.98;;;;;;;26.57;42.78;101022.03;5001625;28;20041;-80
2022/08/09 03:30:10;;;;;;;5.20;2.53;;;;;;;26.54;42.75;101017.31;4989870;28;20076;-80
2022/08/09 03:32:56;;;;;;;10.90;2.47;;;;;;;26.53;42.49;101010.94;4986644;28;20054;-80
2022/08/09 03:35:41;;;;;;;4.00;2.45;;;;;;;26.57;42.68;101022.03;4999985;28;20057;-80
2022/08/09 03:38:26;;;;;;;4.75;2.25;;;;;;;26.54;41.78;101026.47;4987566;28;20061;-80
2022/08/09 03:41:13;;;;;;;4.93;2.40;;;;;;;26.50;42.25;101019.34;4993312;28;20041;-80
2022/08/09 03:43:58;;;;;;;3.17;2.10;;;;;;;26.44;41.79;101013.44;5000588;28;20049;-80
2022/08/09 03:46:43;;;;;;;3.35;2.00;;;;;;;26.42;41.88;101018.63;4999271;28;20053;-80
2022/08/09 03:49:28;;;;;;;2.38;2.10;;;;;;;26.38;42.26;101015.09;4987052;28;20049;-80
2022/08/09 03:52:15;;;;;;;4.18;2.22;;;;;;;26.30;42.72;101014.41;4999934;28;20053;-80
2022/08/09 03:55:03;;;;;;;5.60;2.35;;;;;;;26.32;43.51;101027.91;5000612;28;20049;-80
2022/08/09 03:57:49;;;;;;;6.07;2.10;;;;;;;26.31;42.84;101026.34;4992567;28;20051;-80
2022/08/09 04:00:34;;;;;;;4.53;2.00;;;;;;;26.43;42.28;101031.38;5001562;28;20050;-80
2022/08/09 04:03:19;;;;;;;4.07;2.03;;;;;;;26.45;43.46;101028.97;4989557;28;20061;-81
2022/08/09 04:06:05;;;;;;;2.85;2.10;;;;;;;26.57;43.97;101030.41;5001148;28;20045;-80
2022/08/09 04:08:50;;;;;;;3.15;2.25;;;;;;;26.54;43.98;101034.03;4997337;28;20049;-80
2022/08/09 04:12:14;;;;;;;3.65;2.28;;;;;;;26.63;43.09;101034.34;4989689;28;20049;-80
2022/08/09 04:14:59;;;;;;;7.57;2.28;;;;;;;26.51;43.77;101032.91;5003406;28;20049;-80
2022/08/09 04:17:47;;;;;;;3.72;2.42;;;;;;;26.59;44.02;101031.59;5004896;28;20045;-80
2022/08/09 04:20:32;;;;;;;4.93;2.22;;;;;;;26.56;43.49;101042.81;4990968;28;20054;-80
2022/08/09 04:23:17;;;;;;;5.97;2.08;;;;;;;26.58;44.07;101046.75;4997951;28;20061;-80
2022/08/09 04:26:02;;;;;;;3.20;2.30;;;;;;;26.50;43.16;101045.25;5001575;28;20042;-80
2022/08/09 04:28:47;;;;;;;7.75;2.67;;;;;;;26.42;43.00;101042.94;5001660;28;20045;-80
2022/08/09 04:31:31;;;;;;;6.68;2.00;;;;;;;26.36;43.05;101043.41;5004869;28;20049;-80
2022/08/09 04:34:16;;;;;;;4.47;2.13;;;;;;;26.40;43.58;101054.53;4994184;28;20558;-80
2022/08/09 04:37:01;;;;;;;11.20;2.40;;;;;;;26.40;43.27;101051.75;5002253;28;20049;-80
2022/08/09 04:39:46;;;;;;;4.13;2.08;;;;;;;26.36;42.71;101053.78;4998537;28;20042;-80
2022/08/09 04:42:31;;;;;;;3.97;1.70;;;;;;;26.26;42.11;101052.66;4997506;28;20053;-81
2022/08/09 04:45:16;;;;;;;12.68;2.50;;;;;;;26.28;42.69;101066.19;4992704;28;20045;-80
2022/08/09 04:48:01;;;;;;;5.35;2.13;;;;;;;26.25;43.32;101065.06;4978292;28;20049;-80
2022/08/09 04:50:45;;;;;;;12.32;2.75;;;;;;;26.24;42.62;101063.47;4996668;28;20036;-80
2022/08/09 04:53:30;;;;;;;3.42;1.75;;;;;;;26.28;42.58;101067.00;4987294;28;20553;-81
2022/08/09 04:56:15;;;;;;;3.47;1.80;;;;;;;26.29;43.57;101067.78;4993543;28;20511;-80
2022/08/09 04:59:00;;;;;;;3.72;1.90;;;;;;;26.27;42.94;101065.41;4989252;28;20040;-80
2022/08/09 05:01:45;;;;;;;7.72;2.28;;;;;;;26.29;42.35;101074.16;4996341;28;20045;-81
2022/08/09 05:04:30;;;;;;;18.67;2.85;;;;;;;26.41;44.04;101069.28;4993958;28;20049;-79
2022/08/09 05:07:15;;;;;;;10.93;2.03;;;;;;;26.41;43.22;101080.44;4989902;28;20045;-79
2022/08/09 05:10:00;;;;;;;10.15;2.15;;;;;;;26.46;43.13;101077.19;4994822;28;20049;-83
2022/08/09 05:12:45;;;;;;;3.67;2.35;;;;;;;26.48;42.70;101083.13;5000648;28;20395;-81
2022/08/09 05:15:30;;;;;;;5.82;2.30;;;;;;;26.55;42.52;101089.44;4983170;28;20419;-82
2022/08/09 05:18:15;;;;;;;1.95;1.70;;;;;;;26.46;42.72;101086.34;4981111;28;20517;-82
2022/08/09 05:21:00;;;;;;;4.18;1.90;;;;;;;26.43;42.71;101087.16;4998917;28;20049;-83
2022/08/09 05:23:44;;;;;;;10.27;2.05;;;;;;;26.45;42.92;101092.34;5000391;28;20057;-81
2022/08/09 05:26:30;;;;;;;3.60;2.03;;;;;;;26.44;42.49;101087.97;4970208;28;20065;-83
2022/08/09 05:29:18;;;;;;;9.95;2.53;;;;;;;26.47;42.86;101093.50;4981352;28;20050;-82
2022/08/09 05:32:03;;;;;;;3.75;1.92;;;;;;;26.50;43.19;101094.69;4992091;28;20049;-82
2022/08/09 05:34:48;;;;;;;6.63;1.92;;;;;;;26.53;43.42;101091.03;4989704;28;20045;-81
2022/08/09 05:37:33;;;;;;;3.17;1.77;;;;;;;26.56;43.48;101104.19;5000637;28;20050;-82
2022/08/09 05:40:17;;;;;;;4.95;2.05;;;;;;;26.57;43.59;101102.94;4993027;28;20077;-81
2022/08/09 05:43:02;;;;;;;4.25;1.85;;;;;;;26.63;43.25;101098.50;5002787;28;20061;-82
2022/08/09 05:45:47;;;;;;;3.80;2.15;;;;;;;26.71;43.82;101100.03;4999200;28;20046;-81
2022/08/09 05:48:32;;;;;;;4.65;1.90;;;;;;;26.71;43.50;101100.81;4996356;28;20045;-82
2022/08/09 05:51:17;;;;;;;4.82;2.10;;;;;;;26.72;43.02;101093.22;4986917;28;20041;-81
2022/08/09 05:54:02;;;;;;;2.97;1.90;;;;;;;26.76;43.15;101102.34;4989048;28;20061;-80
2022/08/09 05:56:47;;;;;;;6.32;1.92;;;;;;;26.77;43.08;101093.53;4981697;28;20041;-81
2022/08/09 05:59:31;;;;;;;4.40;3.03;;;;;;;26.79;42.63;101090.34;5001957;28;20049;-82
2022/08/09 06:02:16;;;;;;;5.15;2.10;;;;;;;26.82;42.93;101100.66;4998666;28;20045;-83
2022/08/09 06:05:02;;;;;;;4.13;1.95;;;;;;;26.86;43.24;101097.84;4992583;28;20057;-82
2022/08/09 06:07:46;;;;;;;3.40;1.60;;;;;;;26.88;43.32;101099.03;5000114;28;20064;-82
2022/08/09 06:10:37;;;;;;;3.75;1.95;;;;;;;26.90;43.33;101110.59;4999464;28;20057;-82
2022/08/09 06:13:22;;;;;;;4.30;2.10;;;;;;;26.93;43.18;101095.78;5000091;28;20525;-82
2022/08/09 06:16:07;;;;;;;7.88;2.00;;;;;;;26.99;41.92;101105.28;4997574;28;20069;-82
2022/08/09 06:18:52;;;;;;;5.25;1.95;;;;;;;27.02;41.83;101104.44;4994448;28;20414;-82
2022/08/09 06:21:37;;;;;;;4.53;2.03;;;;;;;27.07;41.99;101106.00;4997610;28;20041;-82
2022/08/09 06:24:22;;;;;;;5.00;2.10;;;;;;;27.11;41.91;101106.75;4993426;28;20045;-81
2022/08/09 06:27:07;;;;;;;4.28;2.08;;;;;;;27.14;41.91;101109.47;4997799;28;20518;-82
2022/08/09 06:29:52;;;;;;;3.38;1.95;;;;;;;27.17;41.85;101105.84;4998191;28;20049;-81
2022/08/09 06:32:37;;;;;;;2.75;1.75;;;;;;;27.20;42.02;101105.00;4998493;28;20057;-81
2022/08/09 06:35:21;;;;;;;4.70;2.10;;;;;;;27.24;42.41;101111.34;4985300;28;20049;-80
2022/08/09 06:38:06;;;;;;;4.05;1.70;;;;;;;27.26;42.10;101112.91;5003563;28;20057;-80
2022/08/09 06:40:51;;;;;;;3.55;1.73;;;;;;;27.30;41.93;101113.66;4980153;28;20050;-81
2022/08/09 06:43:39;;;;;;;4.72;1.98;;;;;;;27.30;42.59;101120.03;4994836;28;20053;-81
2022/08/09 06:46:24;;;;;;;2.53;1.50;;;;;;;27.35;42.50;101110.41;4979191;28;20049;-81
2022/08/09 06:49:08;;;;;;;3.05;1.85;;;;;;;27.38;43.17;101117.97;4986757;28;20057;-81
2022/08/09 06:51:53;;;;;;;5.65;1.92;;;;;;;27.41;43.13;101120.69;4997654;28;20050;-81
2022/08/09 06:54:38;;;;;;;5.07;1.77;;;;;;;27.43;42.54;101123.06;4998423;28;20510;-81
2022/08/09 06:57:23;;;;;;;3.28;1.70;;;;;;;27.46;42.35;101119.41;4995731;28;20065;-81
2022/08/09 07:00:09;;;;;;;11.30;1.88;;;;;;;27.50;43.23;101120.97;5004034;28;20726;-81
2022/08/09 07:02:54;;;;;;;2.83;1.88;;;;;;;27.55;42.38;101136.47;5003850;28;20049;-82
2022/08/09 07:05:39;;;;;;;4.00;1.80;;;;;;;27.56;41.95;101129.69;4996181;28;20058;-80
2022/08/09 07:08:24;;;;;;;4.97;2.20;;;;;;;27.60;42.32;101127.63;4987735;28;20053;-80
2022/08/09 07:11:09;;;;;;;2.58;1.85;;;;;;;27.64;42.64;101131.16;4994159;28;20044;-80
2022/08/09 07:13:54;;;;;;;2.70;1.77;;;;;;;27.67;42.19;101135.13;4993542;28;20053;-79
2022/08/09 07:16:38;;;;;;;5.68;2.05;;;;;;;27.71;42.01;101142.25;4995787;28;20077;-80
2022/08/09 07:19:23;;;;;;;2.80;1.90;;;;;;;27.74;42.05;101135.78;4984930;28;20045;-80
2022/08/09 07:22:08;;;;;;;4.60;2.20;;;;;;;27.77;42.46;101137.75;5008736;28;20050;-81
2022/08/09 07:24:53;;;;;;;4.05;2.00;;;;;;;27.81;42.93;101137.69;4992072;28;20057;-81
2022/08/09 07:27:40;;;;;;;5.72;2.08;;;;;;;27.83;42.96;101136.06;4992802;28;20499;-80
2022/08/09 07:30:25;;;;;;;3.17;2.15;;;;;;;27.85;43.08;101133.63;4977666;28;20042;-80
2022/08/09 07:33:10;;;;;;;3.58;1.60;;;;;;;27.88;43.22;101135.59;4989688;28;20049;-82
2022/08/09 07:35:55;;;;;;;3.03;1.70;;;;;;;27.91;43.11;101136.72;4994945;28;20542;-80
2022/08/09 07:38:39;;;;;;;4.93;1.63;;;;;;;27.98;41.89;101143.03;4997003;28;20055;-80
2022/08/09 07:41:25;;;;;;;7.10;1.67;;;;;;;28.02;41.15;101132.56;5008283;28;20060;-81
2022/08/09 07:44:09;;;;;;;4.13;2.22;;;;;;;28.08;40.69;101133.66;4999412;28;20057;-80
2022/08/09 07:46:54;;;;;;;3.50;1.60;;;;;;;28.12;40.64;101132.84;4994821;28;20045;-80
2022/08/09 07:49:39;;;;;;;1.85;1.45;;;;;;;28.17;40.73;101133.13;4997250;28;20053;-80
2022/08/09 07:52:23;;;;;;;7.47;1.23;;;;;;;28.24;40.19;101137.84;4999945;28;20049;-80
2022/08/09 07:55:08;;;;;;;6.65;1.65;;;;;;;28.23;38.30;101137.03;4997113;28;20057;-81
2022/08/09 07:57:53;;;;;;;5.22;2.00;;;;;;;28.34;39.09;101139.66;4998878;28;20415;-80
2022/08/09 08:00:38;;;;;;;8.07;2.15;;;;;;;28.39;38.71;101141.97;5002407;28;20053;-80
2022/08/09 08:03:23;;;;;;;4.22;1.92;;;;;;;28.45;38.56;101143.03;4992737;28;20049;-80
2022/08/09 08:06:08;;;;;;;2.25;1.58;;;;;;;28.50;38.71;101139.72;5004576;28;20045;-80
2022/08/09 08:08:52;;;;;;;2.97;1.48;;;;;;;28.52;37.90;101136.50;4985941;28;20049;-81
2022/08/09 08:11:37;;;;;;;3.20;1.48;;;;;;;28.58;38.13;101148.81;4996143;28;20049;-81
2022/08/09 08:14:22;;;;;;;7.20;1.63;;;;;;;28.58;37.42;101143.22;4997263;28;20049;-81
2022/08/09 08:17:07;;;;;;;3.95;1.58;;;;;;;28.63;37.35;101137.91;4997373;28;20057;-81
2022/08/09 08:19:51;;;;;;;8.70;1.50;;;;;;;28.68;38.38;101145.81;4998449;28;20054;-80
2022/08/09 08:22:36;;;;;;;5.53;1.70;;;;;;;28.71;38.35;101141.34;4996183;28;20049;-80
2022/08/09 08:25:20;;;;;;;9.15;1.60;;;;;;;28.74;38.06;101144.13;5006900;28;20049;-81
2022/08/09 08:28:05;;;;;;;4.00;1.48;;;;;;;28.77;38.12;101143.25;4996610;28;20069;-81
2022/08/09 08:30:49;;;;;;;6.45;1.80;;;;;;;28.82;38.06;101141.97;4997233;28;20061;-81
2022/08/09 08:33:34;;;;;;;2.95;1.63;;;;;;;28.85;38.63;101141.13;5001269;28;20049;-81
2022/08/09 08:36:20;;;;;;;4.35;2.33;;;;;;;28.90;38.59;101147.00;4997093;28;20050;-81
2022/08/09 08:39:05;;;;;;;1.75;1.65;;;;;;;28.95;38.58;101142.91;4997449;28;20049;-81
2022/08/09 08:41:50;;;;;;;3.38;2.08;;;;;;;29.00;37.94;101145.22;4996236;28;20057;-81
2022/08/09 08:44:36;;;;;;;6.15;2.55;;;;;;;29.06;37.99;101142.69;4997061;28;20045;-81
2022/08/09 08:47:21;;;;;;;4.47;1.75;;;;;;;29.09;38.33;101145.41;4989772;28;20130;-80
2022/08/09 08:50:07;;;;;;;7.65;1.98;;;;;;;29.12;37.69;101150.16;5002944;28;20061;-81
2022/08/09 08:52:51;;;;;;;4.03;1.67;;;;;;;29.17;37.62;101140.44;4996601;28;20049;-81
2022/08/09 08:55:36;;;;;;;4.35;1.92;;;;;;;29.24;37.33;101145.91;4996452;28;20049;-81
2022/08/09 08:58:22;;;;;;;2.15;1.70;;;;;;;29.27;37.47;101142.22;5002725;28;20045;-80
2022/08/09 09:01:08;;;;;;;4.05;1.83;;;;;;;29.30;37.90;101141.38;4999650;28;20045;-80
2022/08/09 09:03:54;;;;;;;5.45;2.00;;;;;;;29.38;37.57;101147.63;5000054;28;20061;-80
2022/08/09 09:06:41;;;;;;;6.68;1.88;;;;;;;29.42;37.95;101137.94;5001485;28;20045;-80
2022/08/09 09:09:28;;;;;;;3.67;1.50;;;;;;;29.49;38.22;101139.78;4994277;28;20053;-81
2022/08/09 09:12:18;;;;;;;4.53;2.00;;;;;;;29.53;37.61;101141.28;4999691;28;20054;-79
2022/08/09 09:15:04;;;;;;;7.88;1.88;;;;;;;29.58;37.51;101140.75;5001645;28;20054;-81
2022/08/09 09:17:49;;;;;;;5.22;1.90;;;;;;;29.65;37.51;101142.63;5001740;28;20058;-80
2022/08/09 09:20:35;;;;;;;5.70;1.88;;;;;;;29.71;37.48;101144.44;4999241;28;20053;-80
2022/08/09 09:23:41;;;;;;;4.75;1.95;;;;;;;29.80;37.09;101140.28;5004180;28;20065;-80
2022/08/09 09:26:25;;;;;;;3.60;1.95;;;;;;;29.81;37.06;101136.25;4999968;28;20069;-80
2022/08/09 09:29:10;;;;;;;7.43;1.83;;;;;;;29.87;36.86;101137.31;4998607;28;20045;-80
2022/08/09 09:31:56;;;;;;;4.30;2.25;;;;;;;29.94;36.70;101134.34;5001399;28;20439;-80
2022/08/09 09:34:43;;;;;;;7.03;2.35;;;;;;;30.01;36.47;101128.56;5003411;28;20056;-81
2022/08/09 09:37:29;;;;;;;6.53;1.90;;;;;;;30.10;35.96;101134.34;4993346;28;20100;-81
2022/08/09 09:40:15;;;;;;;1.88;1.50;;;;;;;30.14;36.09;101132.22;4998507;28;20411;-80
2022/08/09 09:42:59;;;;;;;3.35;1.67;;;;;;;30.16;36.14;101132.59;4987087;28;20050;-79
2022/08/09 09:45:52;;;;;;;4.78;1.85;;;;;;;30.25;36.16;101132.75;4998425;28;20053;-80
2022/08/09 09:48:37;;;;;;;4.50;2.00;;;;;;;30.27;35.93;101121.88;5002408;28;20049;-78
2022/08/09 09:51:21;;;;;;;6.40;1.83;;;;;;;30.31;36.07;101119.78;4992161;28;20049;-79
2022/08/09 09:54:07;;;;;;;9.50;1.88;;;;;;;30.41;35.79;101118.69;4995916;28;20061;-80
2022/08/09 09:56:53;;;;;;;4.97;1.95;;;;;;;30.46;35.72;101115.38;4984141;28;20411;-80
2022/08/09 09:59:38;;;;;;;13.35;4.05;;;;;;;30.52;35.58;101113.63;4997965;28;20054;-81
2022/08/09 10:02:25;;;;;;;9.38;2.40;;;;;;;30.58;35.22;101117.44;4979856;28;20555;-80
2022/08/09 10:05:10;;;;;;;7.63;2.55;;;;;;;30.64;35.53;101126.13;4995988;28;20049;-79
2022/08/09 10:08:04;;;;;;;3.58;2.08;;;;;;;30.73;35.20;101122.69;4994848;28;20065;-81
2022/08/09 10:10:52;;;;;;;4.75;1.95;;;;;;;30.77;35.50;101124.16;4995646;28;20053;-81
2022/08/09 10:13:38;;;;;;;3.28;1.98;;;;;;;30.78;34.95;101114.47;4996459;28;20411;-82
2022/08/09 10:16:32;;;;;;;2.17;1.98;;;;;;;30.85;35.28;101121.94;4988657;28;20068;-81
2022/08/09 10:19:17;;;;;;;4.65;1.90;;;;;;;30.92;34.94;101124.53;4986549;28;20042;-81
2022/08/09 10:22:02;;;;;;;2.38;1.70;;;;;;;30.98;34.54;101125.56;4997530;28;20053;-80
2022/08/09 10:24:47;;;;;;;2.47;1.90;;;;;;;31.00;35.29;101120.28;4980746;28;20050;-81
2022/08/09 10:27:32;;;;;;;3.30;1.70;;;;;;;31.00;34.90;101115.44;4998889;28;20045;-81
2022/08/09 10:30:18;;;;;;;2.95;1.80;;;;;;;31.06;34.31;101118.53;4986467;28;20041;-82
2022/08/09 10:33:03;;;;;;;3.17;1.90;;;;;;;31.11;34.29;101114.38;4994057;28;20053;-83
2022/08/09 10:35:49;;;;;;;1.73;1.60;;;;;;;31.16;34.51;101111.81;4989505;28;20045;-82
2022/08/09 10:38:36;;;;;;;6.75;1.77;;;;;;;31.23;34.42;101110.81;4987097;28;20049;-82
2022/08/09 10:41:20;;;;;;;2.67;1.75;;;;;;;31.30;33.83;101121.81;4991392;28;20589;-82
2022/08/09 10:44:05;;;;;;;2.28;1.50;;;;;;;31.34;34.44;101114.84;5001939;28;20064;-81
2022/08/09 10:47:06;;;;;;;6.00;2.05;;;;;;;31.42;33.38;101113.41;5000112;28;20053;-82
2022/08/09 10:53:58;;;;;;;2.22;1.67;;;;;;;31.50;34.84;101102.72;5001690;28;20045;-81
2022/08/09 10:56:43;;;;;;;3.63;1.77;;;;;;;31.51;34.18;101100.69;4999311;28;20045;-81
2022/08/09 10:59:29;;;;;;;3.17;1.73;;;;;;;31.57;33.70;101102.53;5001069;28;20408;-81
2022/08/09 11:02:34;;;;;;;4.50;1.92;;;;;;;31.60;33.25;101104.44;4999876;28;20053;-80
2022/08/09 11:05:20;;;;;;;;;;;;;;;31.61;33.55;101099.59;5001171;28;20042;-82
2022/08/09 11:08:42;;;;;;;4.40;1.80;;;;;;;31.73;32.54;101093.19;4999417;28;19914;-81
2022/08/09 11:11:59;;;;;;;6.95;2.45;;;;;;;31.79;32.85;101088.56;5002978;28;20395;-81
2022/08/09 11:14:56;;;;;;;15.27;2.10;;;;;;;31.81;33.03;101088.88;4997147;28;20045;-82
2022/08/09 11:17:40;;;;;;;3.25;2.55;;;;;;;31.83;33.18;101090.03;4989582;28;20101;-82
2022/08/09 11:20:43;;;;;;;4.05;1.88;;;;;;;31.88;33.64;101085.06;4993732;28;20506;-81
2022/08/09 11:23:28;;;;;;;7.45;2.05;;;;;;;31.90;33.22;101079.78;5001352;28;20045;-80
2022/08/09 11:26:49;;;;;;;4.00;2.25;;;;;;;31.97;32.35;101080.31;4987681;28;20045;-80
2022/08/09 11:29:53;;;;;;;8.57;2.10;;;;;;;32.05;32.80;101075.25;4985484;28;20049;-80
2022/08/09 11:32:46;;;;;;;5.55;1.95;;;;;;;31.99;33.15;101077.84;4989228;28;20045;-80
2022/08/09 11:35:38;;;;;;;10.48;2.45;;;;;;;32.01;33.38;101075.34;4996385;28;20037;-80
2022/08/09 11:38:25;;;;;;;8.70;2.95;;;;;;;32.01;33.12;101064.09;4983096;28;20114;-80
2022/08/09 11:41:10;;;;;;;4.95;2.13;;;;;;;32.06;33.45;101066.31;4995971;28;20041;-79
2022/08/09 11:43:56;;;;;;;5.20;1.70;;;;;;;32.06;33.29;101060.69;4998209;28;20048;-79
2022/08/09 11:46:52;;;;;;;3.30;1.83;;;;;;;32.08;33.15;101065.88;4998797;28;20053;-79
2022/08/09 11:50:01;;;;;;;2.90;2.00;;;;;;;32.13;32.36;101054.06;4977449;28;20062;-79
2022/08/09 11:52:58;;;;;;;8.68;2.00;;;;;;;32.21;32.16;101064.63;4976817;28;20042;-79
2022/08/09 11:55:43;;;;;;;3.58;2.00;;;;;;;32.15;32.53;101058.00;4968155;28;20057;-80
2022/08/09 11:58:29;;;;;;;5.80;1.70;;;;;;;32.22;32.27;101057.75;4989855;28;20049;-80
2022/08/09 12:01:17;;;;;;;3.17;2.05;;;;;;;32.31;31.75;101059.06;4987358;28;20049;-80
2022/08/09 12:04:05;;;;;;;3.00;1.98;;;;;;;32.38;31.54;101053.19;4995390;28;20057;-80
2022/08/09 12:06:52;;;;;;;3.97;2.33;;;;;;;32.41;31.43;101052.28;5004370;28;20049;-79
2022/08/09 12:09:38;;;;;;;2.97;2.00;;;;;;;32.40;32.58;101048.69;4996013;28;20045;-79
2022/08/09 12:12:23;;;;;;;3.38;2.33;;;;;;;32.39;33.18;101049.91;4996605;28;20045;-80
2022/08/09 12:15:23;;;;;;;5.35;2.35;;;;;;;32.38;32.38;101044.72;4997673;28;20045;-80
2022/08/09 12:18:16;;;;;;;2.45;2.13;;;;;;;32.42;32.05;101043.34;4995446;28;20096;-80
2022/08/09 12:21:05;;;;;;;3.60;1.88;;;;;;;32.44;31.83;101038.06;4995352;28;20053;-79
2022/08/09 12:23:50;;;;;;;4.80;2.40;;;;;;;32.44;31.81;101040.09;4995858;28;20069;-80
2022/08/09 12:26:41;;;;;;;2.00;1.80;;;;;;;32.43;31.98;101030.06;4995638;28;20049;-78
2022/08/09 12:29:30;;;;;;;3.92;2.20;;;;;;;32.41;31.78;101024.88;4993320;28;20069;-78
2022/08/09 12:32:14;;;;;;;5.15;2.25;;;;;;;32.43;32.31;101030.84;4993023;28;20061;-78
2022/08/09 12:35:00;;;;;;;4.78;2.33;;;;;;;32.44;32.33;101029.63;4996049;28;20057;-78
2022/08/09 12:37:45;;;;;;;2.28;1.80;;;;;;;32.48;32.43;101035.09;4997893;28;20054;-78
2022/08/09 12:40:30;;;;;;;2.38;2.15;;;;;;;32.48;32.71;101026.66;4998132;28;20061;-79
2022/08/09 12:43:19;;;;;;;6.20;1.92;;;;;;;32.46;33.16;101029.94;4990325;28;20045;-79
2022/08/09 12:46:05;;;;;;;4.18;2.33;;;;;;;32.43;32.77;101024.44;4983401;28;20049;-79
2022/08/09 12:48:54;;;;;;;3.65;2.08;;;;;;;32.39;33.28;101018.16;4990178;28;20045;-79
2022/08/09 12:51:39;;;;;;;5.55;2.05;;;;;;;32.35;33.06;101014.69;4991698;28;20046;-77
2022/08/09 12:54:25;;;;;;;2.83;2.20;;;;;;;32.34;33.38;101007.47;4997391;28;20106;-80
2022/08/09 12:57:09;;;;;;;2.67;2.13;;;;;;;32.33;33.25;101003.09;4999464;28;20118;-79
2022/08/09 13:00:17;;;;;;;5.00;2.30;;;;;;;32.37;33.11;101009.38;4997868;28;20058;-80
2022/08/09 13:03:03;;;;;;;7.32;2.30;;;;;;;32.38;33.17;101003.28;4990018;28;20522;-80